createdAt,value
2022-08-24T00:00:44.460Z,19.25
2022-08-24T00:03:13.440Z,19.34
2022-08-24T00:05:42.849Z,18.97
2022-08-24T00:08:10.823Z,19.05
2022-08-24T00:10:39.629Z,19.13
2022-08-24T00:13:07.787Z,19.13
2022-08-24T00:15:36.064Z,19.02
2022-08-24T00:18:04.438Z,18.98
2022-08-24T00:20:32.976Z,18.51
2022-08-24T00:23:02.158Z,18.88
2022-08-24T00:25:30.137Z,19.02
2022-08-24T00:27:58.101Z,18.82
2022-08-24T00:30:26.079Z,18.94
2022-08-24T00:32:54.812Z,18.76
2022-08-24T00:35:24.205Z,18.97
2022-08-24T00:37:53.488Z,18.87
2022-08-24T00:40:26.056Z,18.64
2022-08-24T00:42:55.386Z,18.45
2022-08-24T00:45:25.066Z,18.34
2022-08-24T00:47:59.051Z,18.31
2022-08-24T00:50:34.160Z,18.46
2022-08-24T00:53:05.505Z,18.47
2022-08-24T00:55:40.212Z,18.52
2022-08-24T00:58:17.843Z,18.33
2022-08-24T01:01:03.615Z,18.07
2022-08-24T01:03:32.786Z,18.22
2022-08-24T01:06:01.028Z,18.07
2022-08-24T01:08:29.425Z,17.82
2022-08-24T01:11:01.992Z,17.62
2022-08-24T01:13:31.943Z,17.73
2022-08-24T01:16:03.112Z,17.96
2022-08-24T01:18:49.384Z,17.88
2022-08-24T01:21:20.853Z,18.08
2022-08-24T01:23:52.459Z,18.03
2022-08-24T01:26:23.510Z,17.77
2022-08-24T01:28:56.237Z,17.63
2022-08-24T01:31:26.045Z,17.62
2022-08-24T01:33:54.927Z,17.54
2022-08-24T01:36:37.236Z,17.57
2022-08-24T01:39:10.921Z,17.56
2022-08-24T01:41:38.810Z,17.54
2022-08-24T01:44:07.165Z,17.64
2022-08-24T01:46:35.519Z,17.63
2022-08-24T01:49:03.435Z,17.41
2022-08-24T01:51:32.600Z,17.27
2022-08-24T01:54:03.059Z,17.18
2022-08-24T01:56:34.068Z,17.13
2022-08-24T01:59:02.086Z,17.14
2022-08-24T02:01:33.436Z,17.10
2022-08-24T02:04:04.963Z,17.02
2022-08-24T02:06:33.450Z,17.12
2022-08-24T02:09:02.436Z,16.91
2022-08-24T02:11:34.894Z,16.90
2022-08-24T02:14:03.341Z,16.66
2022-08-24T02:16:34.135Z,16.77
2022-08-24T02:19:02.018Z,16.70
2022-08-24T02:21:30.187Z,16.68
2022-08-24T02:23:58.023Z,16.68
2022-08-24T02:26:28.423Z,16.57
2022-08-24T02:29:03.850Z,16.40
2022-08-24T02:31:33.883Z,16.52
2022-08-24T02:34:02.154Z,16.55
2022-08-24T02:36:31.243Z,16.42
2022-08-24T02:39:00.311Z,16.19
2022-08-24T02:41:28.773Z,16.08
2022-08-24T02:43:57.916Z,16.20
2022-08-24T02:46:29.946Z,16.09
2022-08-24T02:49:11.244Z,15.96
2022-08-24T02:51:45.773Z,16.19
2022-08-24T02:54:22.742Z,16.37
2022-08-24T02:56:53.296Z,16.16
2022-08-24T02:59:21.887Z,16.11
2022-08-24T03:01:52.796Z,16.10
2022-08-24T03:04:22.742Z,16.17
2022-08-24T03:06:50.673Z,15.82
2022-08-24T03:09:18.878Z,15.79
2022-08-24T03:11:46.802Z,15.62
2022-08-24T03:14:15.196Z,15.65
2022-08-24T03:16:43.943Z,15.76
2022-08-24T03:19:15.354Z,15.42
2022-08-24T03:21:44.646Z,15.52
2022-08-24T03:24:13.759Z,15.50
2022-08-24T03:26:44.295Z,15.30
2022-08-24T03:29:13.886Z,15.28
2022-08-24T03:31:44.186Z,15.42
2022-08-24T03:34:14.160Z,15.69
2022-08-24T03:36:46.191Z,15.72
2022-08-24T03:39:15.578Z,15.17
2022-08-24T03:41:43.731Z,15.61
2022-08-24T03:44:11.663Z,15.17
2022-08-24T03:46:41.729Z,15.30
2022-08-24T03:49:11.042Z,15.47
2022-08-24T03:51:40.480Z,15.32
2022-08-24T03:54:11.554Z,15.32
2022-08-24T03:56:39.879Z,15.10
2022-08-24T03:59:09.877Z,15.40
2022-08-24T04:01:41.662Z,15.19
2022-08-24T04:04:10.438Z,15.14
2022-08-24T04:06:44.558Z,15.19
2022-08-24T04:09:13.152Z,15.25
2022-08-24T04:11:46.241Z,14.90
2022-08-24T04:14:26.513Z,15.18
2022-08-24T04:17:15.609Z,14.99
2022-08-24T04:19:58.092Z,15.08
2022-08-24T04:22:34.291Z,15.12
2022-08-24T04:25:09.301Z,14.98
2022-08-24T04:27:39.239Z,14.79
2022-08-24T04:30:10.085Z,14.73
2022-08-24T04:33:03.471Z,14.40
2022-08-24T04:35:31.669Z,14.76
2022-08-24T04:38:01.100Z,14.24
2022-08-24T04:40:29.521Z,14.46
2022-08-24T04:42:59.199Z,14.57
2022-08-24T04:45:30.113Z,14.87
2022-08-24T04:47:58.198Z,14.67
2022-08-24T04:50:27.872Z,14.85
2022-08-24T04:52:55.998Z,14.85
2022-08-24T04:55:25.567Z,14.87
2022-08-24T04:57:53.588Z,15.03
2022-08-24T05:00:22.118Z,14.97
2022-08-24T05:02:50.701Z,14.79
2022-08-24T05:05:18.809Z,14.64
2022-08-24T05:07:46.862Z,14.21
2022-08-24T05:10:15.436Z,14.55
2022-08-24T05:12:47.144Z,14.66
2022-08-24T05:15:16.392Z,14.57
2022-08-24T05:17:46.778Z,14.88
2022-08-24T05:20:20.263Z,14.50
2022-08-24T05:22:50.101Z,14.82
2022-08-24T05:25:20.390Z,14.65
2022-08-24T05:27:49.914Z,14.88
2022-08-24T05:30:18.108Z,15.08
2022-08-24T05:32:46.588Z,15.10
2022-08-24T05:35:14.858Z,15.31
2022-08-24T05:37:44.015Z,15.18
2022-08-24T05:40:18.994Z,15.24
2022-08-24T05:42:55.633Z,15.32
2022-08-24T05:45:23.949Z,15.67
2022-08-24T05:47:52.446Z,15.67
2022-08-24T05:50:43.382Z,15.79
2022-08-24T05:53:13.498Z,15.53
2022-08-24T05:55:42.098Z,15.38
2022-08-24T05:58:13.049Z,15.58
2022-08-24T06:00:45.804Z,15.59
2022-08-24T06:03:15.073Z,15.98
2022-08-24T06:05:48.781Z,16.10
2022-08-24T06:08:16.749Z,16.32
2022-08-24T06:10:48.961Z,16.40
2022-08-24T06:13:18.413Z,16.57
2022-08-24T06:16:04.809Z,16.66
2022-08-24T06:18:36.030Z,16.80
2022-08-24T06:21:09.178Z,16.79
2022-08-24T06:23:38.030Z,16.99
2022-08-24T06:26:25.244Z,17.03
2022-08-24T06:28:54.963Z,17.33
2022-08-24T06:31:24.452Z,17.62
2022-08-24T06:33:53.757Z,17.68
2022-08-24T06:36:22.688Z,18.06
2022-08-24T06:38:51.052Z,18.14
2022-08-24T06:41:20.681Z,18.28
2022-08-24T06:43:48.910Z,18.41
2022-08-24T06:46:22.133Z,18.72
2022-08-24T06:48:53.275Z,18.78
2022-08-24T06:51:22.622Z,19.02
2022-08-24T06:53:51.504Z,19.33
2022-08-24T06:56:19.936Z,19.60
2022-08-24T06:58:48.101Z,19.90
2022-08-24T07:01:21.959Z,20.35
2022-08-24T07:03:51.004Z,20.52
2022-08-24T07:06:37.869Z,20.89
2022-08-24T07:09:06.405Z,21.13
2022-08-24T07:11:35.292Z,21.43
2022-08-24T07:14:04.106Z,21.64
2022-08-24T07:16:34.093Z,21.61
2022-08-24T07:19:05.605Z,21.90
2022-08-24T07:21:34.366Z,22.19
2022-08-24T07:26:35.309Z,22.61
2022-08-24T07:29:30.327Z,22.75
2022-08-24T07:32:01.712Z,23.03
2022-08-24T07:34:38.388Z,23.31
2022-08-24T07:37:08.247Z,23.48
2022-08-24T07:39:39.349Z,23.55
2022-08-24T07:42:21.797Z,23.62
2022-08-24T07:44:55.095Z,23.49
2022-08-24T07:47:38.111Z,23.65
2022-08-24T07:50:18.630Z,24.25
2022-08-24T07:52:46.863Z,24.40
2022-08-24T07:55:15.953Z,24.50
2022-08-24T07:57:45.694Z,24.52
2022-08-24T08:00:17.143Z,24.87
2022-08-24T08:02:50.996Z,25.22
2022-08-24T08:05:23.651Z,24.77
2022-08-24T08:07:54.437Z,25.43
2022-08-24T08:10:23.509Z,25.71
2022-08-24T08:12:53.138Z,25.63
2022-08-24T08:15:21.847Z,26.01
2022-08-24T08:18:00.116Z,26.18
2022-08-24T08:20:28.233Z,25.97
2022-08-24T08:23:14.838Z,26.01
2022-08-24T08:26:03.038Z,26.52
2022-08-24T08:28:49.905Z,26.66
2022-08-24T08:31:17.910Z,26.86
2022-08-24T08:33:47.623Z,27.06
2022-08-24T08:36:16.420Z,27.25
2022-08-24T08:38:51.473Z,27.22
2022-08-24T08:41:59.296Z,27.59
2022-08-24T08:44:43.510Z,27.52
2022-08-24T08:47:21.985Z,27.67
2022-08-24T08:50:14.635Z,27.91
2022-08-24T08:53:18.373Z,27.92
2022-08-24T08:55:54.257Z,27.93
2022-08-24T08:58:41.177Z,27.95
2022-08-24T09:01:32.659Z,27.31
2022-08-24T09:04:25.367Z,28.52
2022-08-24T09:07:18.863Z,28.53
2022-08-24T09:10:16.856Z,28.72
2022-08-24T09:13:01.853Z,28.56
2022-08-24T09:15:58.014Z,27.99
2022-08-24T09:18:48.331Z,29.04
2022-08-24T09:21:35.188Z,29.22
2022-08-24T09:24:20.394Z,29.35
2022-08-24T09:27:16.701Z,29.96
2022-08-24T09:30:00.832Z,29.24
2022-08-24T09:32:56.538Z,29.00
2022-08-24T09:35:34.051Z,29.50
2022-08-24T09:38:19.044Z,28.45
2022-08-24T09:41:27.903Z,29.08
2022-08-24T09:44:22.727Z,29.57
2022-08-24T09:47:13.859Z,30.38
2022-08-24T09:50:03.694Z,30.02
2022-08-24T09:53:00.473Z,30.75
2022-08-24T09:56:00.752Z,30.31
2022-08-24T09:58:42.135Z,31.03
2022-08-24T10:01:20.467Z,31.52
2022-08-24T10:04:02.938Z,31.88
2022-08-24T10:06:43.504Z,32.05
2022-08-24T10:09:47.359Z,32.27
2022-08-24T10:12:23.892Z,31.22
2022-08-24T10:15:04.577Z,32.23
2022-08-24T10:17:44.158Z,32.41
2022-08-24T10:20:23.415Z,32.32
2022-08-24T10:23:08.438Z,32.60
2022-08-24T10:25:40.706Z,32.62
2022-08-24T10:28:47.525Z,32.19
2022-08-24T10:31:21.811Z,32.41
2022-08-24T10:34:06.884Z,31.56
2022-08-24T10:37:03.556Z,32.05
2022-08-24T10:40:06.000Z,31.40
2022-08-24T10:43:18.541Z,32.41
2022-08-24T10:46:19.882Z,31.95
2022-08-24T10:49:15.502Z,32.69
2022-08-24T10:52:00.663Z,32.53
2022-08-24T10:54:29.029Z,32.15
2022-08-24T10:57:11.617Z,32.48
2022-08-24T10:59:50.957Z,32.62
2022-08-24T11:02:31.801Z,32.97
2022-08-24T11:05:03.357Z,33.54
2022-08-24T11:07:31.493Z,33.16
2022-08-24T11:10:02.079Z,31.64
2022-08-24T11:12:33.876Z,31.54
2022-08-24T11:15:05.112Z,32.12
2022-08-24T11:17:34.919Z,33.56
2022-08-24T11:20:25.653Z,33.52
2022-08-24T11:23:03.410Z,33.19
2022-08-24T11:25:34.344Z,33.27
2022-08-24T11:28:06.949Z,32.12
2022-08-24T11:30:39.856Z,31.75
2022-08-24T11:33:27.073Z,31.48
2022-08-24T11:35:56.741Z,31.69
2022-08-24T11:38:27.588Z,32.21
2022-08-24T11:41:03.946Z,33.28
2022-08-24T11:43:49.069Z,32.69
2022-08-24T11:46:29.203Z,33.46
2022-08-24T11:49:08.948Z,34.17
2022-08-24T11:51:47.506Z,33.26
2022-08-24T11:57:09.986Z,34.42
2022-08-24T11:59:46.695Z,33.87
2022-08-24T12:02:24.873Z,34.66
2022-08-24T12:04:59.002Z,33.52
2022-08-24T12:07:44.564Z,33.41
2022-08-24T12:10:32.122Z,34.34
2022-08-24T12:13:07.349Z,32.68
2022-08-24T12:15:43.806Z,32.27
2022-08-24T12:18:25.773Z,34.49
2022-08-24T12:20:55.347Z,34.08
2022-08-24T12:23:29.096Z,34.36
2022-08-24T12:26:03.143Z,34.63
2022-08-24T12:28:37.268Z,35.47
2022-08-24T12:31:12.535Z,34.88
2022-08-24T12:33:45.262Z,34.84
2022-08-24T12:36:22.549Z,34.68
2022-08-24T12:39:03.500Z,35.01
2022-08-24T12:41:34.723Z,35.52
2022-08-24T12:44:09.729Z,35.70
2022-08-24T12:46:38.626Z,35.75
2022-08-24T12:49:13.183Z,35.20
2022-08-24T12:52:04.291Z,34.64
2022-08-24T12:55:16.702Z,35.38
2022-08-24T12:57:56.717Z,35.57
2022-08-24T13:00:30.237Z,36.18
2022-08-24T13:03:02.548Z,34.82
2022-08-24T13:05:42.094Z,36.02
2022-08-24T13:08:12.963Z,35.18
2022-08-24T13:10:46.157Z,33.30
2022-08-24T13:13:24.000Z,34.72
2022-08-24T13:16:03.471Z,35.55
2022-08-24T13:19:16.101Z,35.68
2022-08-24T13:21:47.946Z,35.65
2022-08-24T13:25:04.270Z,35.99
2022-08-24T13:27:50.872Z,36.31
2022-08-24T13:30:58.604Z,35.67
2022-08-24T13:33:31.498Z,36.39
2022-08-24T13:36:01.022Z,36.09
2022-08-24T13:38:55.802Z,34.74
2022-08-24T13:41:48.722Z,34.92
2022-08-24T13:44:48.071Z,35.02
2022-08-24T13:47:22.869Z,34.87
2022-08-24T13:50:03.344Z,35.13
2022-08-24T13:52:41.402Z,35.66
2022-08-24T13:55:32.718Z,34.25
2022-08-24T13:58:22.472Z,34.51
2022-08-24T14:04:22.165Z,34.68
2022-08-24T14:06:57.339Z,33.76
2022-08-24T14:09:39.016Z,34.88
2022-08-24T14:12:19.842Z,35.27
2022-08-24T14:15:05.452Z,33.61
2022-08-24T14:17:54.068Z,34.47
2022-08-24T14:20:43.332Z,34.15
2022-08-24T14:23:25.461Z,33.99
2022-08-24T14:26:32.272Z,34.36
2022-08-24T14:29:29.446Z,34.22
2022-08-24T14:32:34.925Z,33.91
2022-08-24T14:35:05.956Z,33.39
2022-08-24T14:37:47.330Z,33.43
2022-08-24T14:40:26.395Z,32.92
2022-08-24T14:43:08.660Z,32.98
2022-08-24T14:45:46.017Z,34.38
2022-08-24T14:51:14.291Z,33.86
2022-08-24T15:06:46.511Z,33.25
2022-08-24T15:09:22.186Z,33.85
2022-08-24T15:11:51.541Z,34.20
2022-08-24T15:14:33.783Z,33.62
2022-08-24T15:23:09.216Z,33.76
2022-08-24T15:32:01.882Z,33.45
2022-08-24T15:34:41.341Z,33.23
2022-08-24T15:37:09.978Z,33.38
2022-08-24T15:39:39.533Z,33.13
2022-08-24T15:42:11.814Z,33.18
2022-08-24T15:44:41.954Z,33.52
2022-08-24T15:47:25.475Z,32.65
2022-08-24T15:49:57.735Z,32.36
2022-08-24T15:52:43.347Z,32.58
2022-08-24T15:55:32.679Z,32.61
2022-08-24T16:03:52.726Z,32.12
2022-08-24T16:06:26.902Z,32.38
2022-08-24T16:09:01.992Z,32.61
2022-08-24T16:11:35.530Z,32.38
2022-08-24T16:14:12.121Z,32.15
2022-08-24T16:16:43.910Z,32.53
2022-08-24T16:19:23.113Z,33.05
2022-08-24T16:24:39.573Z,32.15
2022-08-24T16:27:15.588Z,32.51
2022-08-24T16:29:46.069Z,32.33
2022-08-24T16:32:21.873Z,32.73
2022-08-24T16:35:24.781Z,32.46
2022-08-24T16:41:06.407Z,32.08
2022-08-24T16:43:37.649Z,31.84
2022-08-24T16:46:08.425Z,32.11
2022-08-24T16:48:36.413Z,31.72
2022-08-24T16:51:05.423Z,32.31
2022-08-24T16:53:33.625Z,31.70
2022-08-24T16:56:04.300Z,31.78
2022-08-24T16:58:35.139Z,31.82
2022-08-24T17:01:05.296Z,31.30
2022-08-24T17:03:34.130Z,31.22
2022-08-24T17:06:01.979Z,31.03
2022-08-24T17:08:30.111Z,31.11
2022-08-24T17:10:58.090Z,30.43
2022-08-24T17:13:48.955Z,30.24
2022-08-24T17:16:15.538Z,30.08
2022-08-24T17:18:43.788Z,29.99
2022-08-24T17:21:11.683Z,30.10
2022-08-24T17:23:41.850Z,30.11
2022-08-24T17:26:20.346Z,29.79
2022-08-24T17:28:51.712Z,29.79
2022-08-24T17:31:21.168Z,29.51
2022-08-24T17:33:49.414Z,29.72
2022-08-24T17:36:19.714Z,29.57
2022-08-24T17:38:55.265Z,29.58
2022-08-24T17:41:25.060Z,29.38
2022-08-24T17:43:53.351Z,29.65
2022-08-24T17:46:24.007Z,29.51
2022-08-24T17:48:52.084Z,29.16
2022-08-24T17:51:20.398Z,28.60
2022-08-24T17:53:48.444Z,28.42
2022-08-24T17:56:17.173Z,28.21
2022-08-24T17:59:03.382Z,28.33
2022-08-24T18:01:33.320Z,28.15
2022-08-24T18:04:01.135Z,28.13
2022-08-24T18:06:29.671Z,28.10
2022-08-24T18:09:02.697Z,27.96
2022-08-24T18:11:31.051Z,27.47
2022-08-24T18:14:01.623Z,27.46
2022-08-24T18:16:30.178Z,27.31
2022-08-24T18:18:59.788Z,27.19
2022-08-24T18:21:27.791Z,27.15
2022-08-24T18:23:56.173Z,26.91
2022-08-24T18:26:28.445Z,27.04
2022-08-24T18:29:00.349Z,27.19
2022-08-24T18:31:31.863Z,26.88
2022-08-24T18:34:01.460Z,26.67
2022-08-24T18:36:29.810Z,26.68
2022-08-24T18:38:57.824Z,26.46
2022-08-24T18:41:29.304Z,26.36
2022-08-24T18:43:57.413Z,26.12
2022-08-24T18:46:27.111Z,26.20
2022-08-24T18:48:55.676Z,26.30
2022-08-24T18:51:28.152Z,26.07
2022-08-24T18:54:06.527Z,26.20
2022-08-24T18:56:34.495Z,25.99
2022-08-24T18:59:02.621Z,26.18
2022-08-24T19:01:31.092Z,26.27
2022-08-24T19:03:59.586Z,26.23
2022-08-24T19:06:28.802Z,26.12
2022-08-24T19:08:56.693Z,26.02
2022-08-24T19:11:25.314Z,25.53
2022-08-24T19:13:53.266Z,25.63
2022-08-24T19:16:21.510Z,25.63
2022-08-24T19:18:51.089Z,25.54
2022-08-24T19:21:20.579Z,25.66
2022-08-24T19:23:50.026Z,25.68
2022-08-24T19:26:18.878Z,25.46
2022-08-24T19:28:46.832Z,25.44
2022-08-24T19:31:15.282Z,25.35
2022-08-24T19:33:46.828Z,24.83
2022-08-24T19:36:19.128Z,24.91
2022-08-24T19:38:47.574Z,24.61
2022-08-24T19:41:19.051Z,24.81
2022-08-24T19:44:09.498Z,24.62
2022-08-24T19:46:38.704Z,24.36
2022-08-24T19:49:07.251Z,24.48
2022-08-24T19:51:36.714Z,24.56
2022-08-24T19:54:05.241Z,24.61
2022-08-24T19:56:34.797Z,24.68
2022-08-24T19:59:07.583Z,24.44
2022-08-24T20:01:37.605Z,24.47
2022-08-24T20:04:07.574Z,24.46
2022-08-24T20:06:38.117Z,24.37
2022-08-24T20:09:06.133Z,24.37
2022-08-24T20:11:35.637Z,24.49
2022-08-24T20:14:04.021Z,24.40
2022-08-24T20:16:36.273Z,24.30
2022-08-24T20:19:05.068Z,24.07
2022-08-24T20:21:33.507Z,23.99
2022-08-24T20:24:01.767Z,23.92
2022-08-24T20:26:32.814Z,23.90
2022-08-24T20:29:02.645Z,24.02
2022-08-24T20:31:30.710Z,24.11
2022-08-24T20:33:58.707Z,23.84
2022-08-24T20:36:29.382Z,23.74
2022-08-24T20:39:01.380Z,24.14
2022-08-24T20:41:29.936Z,24.00
2022-08-24T20:50:00.603Z,23.95
2022-08-24T20:52:28.682Z,23.90
2022-08-24T20:54:56.771Z,23.74
2022-08-24T20:57:24.775Z,23.79
2022-08-24T20:59:52.739Z,23.71
2022-08-24T21:02:20.865Z,23.68
2022-08-24T21:04:48.802Z,23.62
2022-08-24T21:07:18.443Z,23.42
2022-08-24T21:09:46.476Z,23.48
2022-08-24T21:12:14.451Z,23.32
2022-08-24T21:14:42.321Z,23.29
2022-08-24T21:17:11.267Z,23.11
2022-08-24T21:19:39.225Z,23.34
2022-08-24T21:22:07.183Z,23.15
2022-08-24T21:24:37.132Z,22.86
2022-08-24T21:27:05.905Z,23.08
2022-08-24T21:29:33.870Z,22.87
2022-08-24T21:32:19.542Z,22.60
2022-08-24T21:34:47.438Z,22.67
2022-08-24T21:37:18.706Z,22.56
2022-08-24T21:39:48.841Z,22.58
2022-08-24T21:42:19.070Z,22.34
2022-08-24T21:44:48.267Z,22.34
2022-08-24T21:47:17.528Z,22.34
2022-08-24T21:49:45.416Z,22.31
2022-08-24T21:52:13.407Z,22.23
2022-08-24T21:54:41.925Z,22.24
2022-08-24T21:57:11.148Z,22.11
2022-08-24T21:59:39.717Z,21.94
2022-08-24T22:02:07.737Z,22.19
2022-08-24T22:04:38.597Z,22.04
2022-08-24T22:07:06.650Z,21.87
2022-08-24T22:09:34.919Z,21.88
2022-08-24T22:12:06.643Z,21.88
2022-08-24T22:14:36.068Z,21.83
2022-08-24T22:17:04.159Z,21.74
2022-08-24T22:19:32.106Z,21.55
2022-08-24T22:22:00.103Z,21.46
2022-08-24T22:24:28.072Z,21.50
2022-08-24T22:26:56.187Z,21.53
2022-08-24T22:29:24.239Z,21.65
2022-08-24T22:31:53.570Z,21.60
2022-08-24T22:34:21.852Z,21.59
2022-08-24T22:36:50.436Z,21.64
2022-08-24T22:39:18.473Z,21.55
2022-08-24T22:41:47.086Z,21.50
2022-08-24T22:44:20.949Z,21.53
2022-08-24T22:46:51.028Z,21.57
2022-08-24T22:49:22.198Z,21.39
2022-08-24T22:51:50.582Z,21.34
2022-08-24T22:54:19.656Z,21.16
2022-08-24T22:56:50.144Z,21.17
2022-08-24T22:59:19.173Z,21.28
2022-08-24T23:01:48.776Z,20.84
2022-08-24T23:04:21.389Z,20.99
2022-08-24T23:06:49.427Z,21.07
2022-08-24T23:09:17.494Z,21.03
2022-08-24T23:11:46.547Z,20.99
2022-08-24T23:14:15.511Z,20.96
2022-08-24T23:16:49.890Z,20.80
2022-08-24T23:19:39.246Z,20.82
2022-08-24T23:22:08.764Z,20.80
2022-08-24T23:24:36.972Z,20.71
2022-08-24T23:27:06.350Z,20.56
2022-08-24T23:29:36.454Z,20.60
2022-08-24T23:32:05.431Z,20.37
2022-08-24T23:34:35.159Z,20.26
2022-08-24T23:37:03.272Z,20.38
2022-08-24T23:39:31.958Z,20.43
2022-08-24T23:42:01.528Z,20.30
2022-08-24T23:44:30.892Z,20.27
2022-08-24T23:46:59.504Z,19.75
2022-08-24T23:49:29.383Z,19.88
2022-08-24T23:51:59.668Z,19.67
2022-08-24T23:54:27.998Z,19.85
2022-08-24T23:56:57.481Z,19.64
2022-08-24T23:59:29.349Z,19.72
